sensor_id;sensor_type;location;lat;lon;timestamp;temperature;humidity
40153;DHT22;26371;56.992;23.912;2022-11-15T00:02:41;3.20;99.90
40153;DHT22;26371;56.992;23.912;2022-11-15T00:05:28;3.10;99.90
40153;DHT22;26371;56.992;23.912;2022-11-15T00:08:15;3.10;99.90
40153;DHT22;26371;56.992;23.912;2022-11-15T00:11:04;3.20;99.90
40153;DHT22;26371;56.992;23.912;2022-11-15T00:13:54;3.20;99.90
40153;DHT22;26371;56.992;23.912;2022-11-15T00:16:42;3.20;99.90
40153;DHT22;26371;56.992;23.912;2022-11-15T00:19:29;3.20;99.90
40153;DHT22;26371;56.992;23.912;2022-11-15T00:22:16;3.20;99.90
40153;DHT22;26371;56.992;23.912;2022-11-15T00:25:04;3.20;99.90
40153;DHT22;26371;56.992;23.912;2022-11-15T00:27:56;3.20;99.90
40153;DHT22;26371;56.992;23.912;2022-11-15T00:30:43;3.20;99.90
40153;DHT22;26371;56.992;23.912;2022-11-15T00:33:30;3.30;99.90
40153;DHT22;26371;56.992;23.912;2022-11-15T00:36:19;3.20;99.90
40153;DHT22;26371;56.992;23.912;2022-11-15T00:39:06;3.20;99.90
40153;DHT22;26371;56.992;23.912;2022-11-15T00:41:53;3.20;99.90
40153;DHT22;26371;56.992;23.912;2022-11-15T00:44:41;3.20;99.90
40153;DHT22;26371;56.992;23.912;2022-11-15T00:47:29;3.20;99.90
40153;DHT22;26371;56.992;23.912;2022-11-15T00:50:16;3.20;99.90
40153;DHT22;26371;56.992;23.912;2022-11-15T00:53:03;3.30;99.90
40153;DHT22;26371;56.992;23.912;2022-11-15T00:55:50;3.20;99.90
40153;DHT22;26371;56.992;23.912;2022-11-15T00:58:37;3.30;99.90
40153;DHT22;26371;56.992;23.912;2022-11-15T01:01:25;3.30;99.90
40153;DHT22;26371;56.992;23.912;2022-11-15T01:04:13;3.30;99.90
40153;DHT22;26371;56.992;23.912;2022-11-15T01:07:00;3.30;99.90
40153;DHT22;26371;56.992;23.912;2022-11-15T01:09:48;3.30;99.90
40153;DHT22;26371;56.992;23.912;2022-11-15T01:12:35;3.30;99.90
40153;DHT22;26371;56.992;23.912;2022-11-15T01:15:23;3.30;99.90
40153;DHT22;26371;56.992;23.912;2022-11-15T01:18:12;3.40;99.90
40153;DHT22;26371;56.992;23.912;2022-11-15T01:20:59;3.40;99.90
40153;DHT22;26371;56.992;23.912;2022-11-15T01:23:46;3.40;99.90
40153;DHT22;26371;56.992;23.912;2022-11-15T01:26:33;3.40;99.90
40153;DHT22;26371;56.992;23.912;2022-11-15T01:29:21;3.40;99.90
40153;DHT22;26371;56.992;23.912;2022-11-15T01:32:09;3.40;99.90
40153;DHT22;26371;56.992;23.912;2022-11-15T01:34:57;3.40;99.90
40153;DHT22;26371;56.992;23.912;2022-11-15T01:37:44;3.40;99.90
40153;DHT22;26371;56.992;23.912;2022-11-15T01:40:32;3.40;99.90
40153;DHT22;26371;56.992;23.912;2022-11-15T01:43:20;3.40;99.90
40153;DHT22;26371;56.992;23.912;2022-11-15T01:46:19;3.40;99.90
40153;DHT22;26371;56.992;23.912;2022-11-15T01:49:14;3.40;99.90
40153;DHT22;26371;56.992;23.912;2022-11-15T01:52:06;3.40;99.90
40153;DHT22;26371;56.992;23.912;2022-11-15T01:54:58;3.40;99.90
40153;DHT22;26371;56.992;23.912;2022-11-15T01:57:49;3.40;99.90
40153;DHT22;26371;56.992;23.912;2022-11-15T02:00:37;3.40;99.90
40153;DHT22;26371;56.992;23.912;2022-11-15T02:03:33;3.40;99.90
40153;DHT22;26371;56.992;23.912;2022-11-15T02:06:22;3.40;99.90
40153;DHT22;26371;56.992;23.912;2022-11-15T02:09:12;3.40;99.90
40153;DHT22;26371;56.992;23.912;2022-11-15T02:11:59;3.40;99.90
40153;DHT22;26371;56.992;23.912;2022-11-15T02:14:50;3.40;99.90
40153;DHT22;26371;56.992;23.912;2022-11-15T02:17:52;3.50;99.90
40153;DHT22;26371;56.992;23.912;2022-11-15T02:20:58;3.50;99.90
40153;DHT22;26371;56.992;23.912;2022-11-15T02:27:35;3.50;99.90
40153;DHT22;26371;56.992;23.912;2022-11-15T02:30:31;3.50;99.90
40153;DHT22;26371;56.992;23.912;2022-11-15T02:33:27;3.50;99.90
40153;DHT22;26371;56.992;23.912;2022-11-15T02:36:26;3.50;99.90
40153;DHT22;26371;56.992;23.912;2022-11-15T02:39:23;3.50;99.90
40153;DHT22;26371;56.992;23.912;2022-11-15T02:42:16;3.50;99.90
40153;DHT22;26371;56.992;23.912;2022-11-15T02:45:30;3.50;99.90
40153;DHT22;26371;56.992;23.912;2022-11-15T02:48:19;3.50;99.90
40153;DHT22;26371;56.992;23.912;2022-11-15T02:51:07;3.50;99.90
40153;DHT22;26371;56.992;23.912;2022-11-15T02:53:55;3.50;99.90
40153;DHT22;26371;56.992;23.912;2022-11-15T02:56:43;3.50;99.90
40153;DHT22;26371;56.992;23.912;2022-11-15T02:59:53;3.50;99.90
40153;DHT22;26371;56.992;23.912;2022-11-15T03:03:26;3.50;99.90
40153;DHT22;26371;56.992;23.912;2022-11-15T03:06:24;3.50;99.90
40153;DHT22;26371;56.992;23.912;2022-11-15T03:09:20;3.50;99.90
40153;DHT22;26371;56.992;23.912;2022-11-15T03:12:14;3.60;99.90
40153;DHT22;26371;56.992;23.912;2022-11-15T03:15:07;3.50;99.90
40153;DHT22;26371;56.992;23.912;2022-11-15T03:18:00;3.50;99.90
40153;DHT22;26371;56.992;23.912;2022-11-15T03:20:50;3.50;99.90
40153;DHT22;26371;56.992;23.912;2022-11-15T03:23:38;3.50;99.90
40153;DHT22;26371;56.992;23.912;2022-11-15T03:26:26;3.60;99.90
40153;DHT22;26371;56.992;23.912;2022-11-15T03:29:17;3.60;99.90
40153;DHT22;26371;56.992;23.912;2022-11-15T03:32:09;3.60;99.90
40153;DHT22;26371;56.992;23.912;2022-11-15T03:35:00;3.60;99.90
40153;DHT22;26371;56.992;23.912;2022-11-15T03:37:54;3.60;99.90
40153;DHT22;26371;56.992;23.912;2022-11-15T03:40:44;3.60;99.90
40153;DHT22;26371;56.992;23.912;2022-11-15T03:43:36;3.60;99.90
40153;DHT22;26371;56.992;23.912;2022-11-15T03:46:28;3.60;99.90
40153;DHT22;26371;56.992;23.912;2022-11-15T03:49:20;3.60;99.90
40153;DHT22;26371;56.992;23.912;2022-11-15T03:52:10;3.60;99.90
40153;DHT22;26371;56.992;23.912;2022-11-15T03:55:01;3.60;99.90
40153;DHT22;26371;56.992;23.912;2022-11-15T03:57:54;3.60;99.90
40153;DHT22;26371;56.992;23.912;2022-11-15T04:00:42;3.60;99.90
40153;DHT22;26371;56.992;23.912;2022-11-15T04:03:30;3.60;99.90
40153;DHT22;26371;56.992;23.912;2022-11-15T04:06:17;3.70;99.90
40153;DHT22;26371;56.992;23.912;2022-11-15T04:09:05;3.70;99.90
40153;DHT22;26371;56.992;23.912;2022-11-15T04:11:53;3.60;99.90
40153;DHT22;26371;56.992;23.912;2022-11-15T04:14:41;3.70;99.90
40153;DHT22;26371;56.992;23.912;2022-11-15T04:17:50;3.70;99.90
40153;DHT22;26371;56.992;23.912;2022-11-15T04:20:37;3.70;99.90
40153;DHT22;26371;56.992;23.912;2022-11-15T04:23:42;3.70;99.90
40153;DHT22;26371;56.992;23.912;2022-11-15T04:26:47;3.70;99.90
40153;DHT22;26371;56.992;23.912;2022-11-15T04:29:35;3.70;99.90
40153;DHT22;26371;56.992;23.912;2022-11-15T04:32:22;3.70;99.90
40153;DHT22;26371;56.992;23.912;2022-11-15T04:35:10;3.70;99.90
40153;DHT22;26371;56.992;23.912;2022-11-15T04:37:57;3.70;99.90
40153;DHT22;26371;56.992;23.912;2022-11-15T04:40:45;3.70;99.90
40153;DHT22;26371;56.992;23.912;2022-11-15T04:43:33;3.70;99.90
40153;DHT22;26371;56.992;23.912;2022-11-15T04:46:22;3.70;99.90
40153;DHT22;26371;56.992;23.912;2022-11-15T04:49:09;3.70;99.90
40153;DHT22;26371;56.992;23.912;2022-11-15T04:51:56;3.70;99.90
40153;DHT22;26371;56.992;23.912;2022-11-15T04:54:43;3.70;99.90
40153;DHT22;26371;56.992;23.912;2022-11-15T04:57:31;3.70;99.90
40153;DHT22;26371;56.992;23.912;2022-11-15T05:00:18;3.70;99.90
40153;DHT22;26371;56.992;23.912;2022-11-15T05:03:09;3.70;99.90
40153;DHT22;26371;56.992;23.912;2022-11-15T05:06:13;3.70;99.90
40153;DHT22;26371;56.992;23.912;2022-11-15T05:09:01;3.70;99.90
40153;DHT22;26371;56.992;23.912;2022-11-15T05:11:48;3.80;99.90
40153;DHT22;26371;56.992;23.912;2022-11-15T05:14:35;3.80;99.90
40153;DHT22;26371;56.992;23.912;2022-11-15T05:17:22;3.80;99.90
40153;DHT22;26371;56.992;23.912;2022-11-15T05:20:11;3.80;99.90
40153;DHT22;26371;56.992;23.912;2022-11-15T05:22:59;3.80;99.90
40153;DHT22;26371;56.992;23.912;2022-11-15T05:25:46;3.80;99.90
40153;DHT22;26371;56.992;23.912;2022-11-15T05:28:33;3.80;99.90
40153;DHT22;26371;56.992;23.912;2022-11-15T05:31:22;3.90;99.90
40153;DHT22;26371;56.992;23.912;2022-11-15T05:34:10;3.90;99.90
40153;DHT22;26371;56.992;23.912;2022-11-15T05:36:59;3.90;99.90
40153;DHT22;26371;56.992;23.912;2022-11-15T05:39:46;3.90;99.90
40153;DHT22;26371;56.992;23.912;2022-11-15T05:42:33;3.90;99.90
40153;DHT22;26371;56.992;23.912;2022-11-15T05:45:20;3.90;99.90
40153;DHT22;26371;56.992;23.912;2022-11-15T05:48:12;3.90;99.90
40153;DHT22;26371;56.992;23.912;2022-11-15T05:51:00;3.80;99.90
40153;DHT22;26371;56.992;23.912;2022-11-15T05:53:50;3.90;99.90
40153;DHT22;26371;56.992;23.912;2022-11-15T05:56:39;3.90;99.90
40153;DHT22;26371;56.992;23.912;2022-11-15T05:59:28;3.90;99.90
40153;DHT22;26371;56.992;23.912;2022-11-15T06:02:16;3.90;99.90
40153;DHT22;26371;56.992;23.912;2022-11-15T06:05:04;4.00;99.90
40153;DHT22;26371;56.992;23.912;2022-11-15T06:07:51;4.00;99.90
40153;DHT22;26371;56.992;23.912;2022-11-15T06:10:39;4.00;99.90
40153;DHT22;26371;56.992;23.912;2022-11-15T06:13:27;4.00;99.90
40153;DHT22;26371;56.992;23.912;2022-11-15T06:16:15;4.00;99.90
40153;DHT22;26371;56.992;23.912;2022-11-15T06:19:02;4.00;99.90
40153;DHT22;26371;56.992;23.912;2022-11-15T06:21:48;4.00;99.90
40153;DHT22;26371;56.992;23.912;2022-11-15T06:24:35;4.00;99.90
40153;DHT22;26371;56.992;23.912;2022-11-15T06:27:24;4.10;99.90
40153;DHT22;26371;56.992;23.912;2022-11-15T06:30:12;4.10;99.90
40153;DHT22;26371;56.992;23.912;2022-11-15T06:33:00;4.10;99.90
40153;DHT22;26371;56.992;23.912;2022-11-15T06:35:48;4.10;99.90
40153;DHT22;26371;56.992;23.912;2022-11-15T06:38:35;4.10;99.90
40153;DHT22;26371;56.992;23.912;2022-11-15T06:41:23;4.10;99.90
40153;DHT22;26371;56.992;23.912;2022-11-15T06:44:11;4.10;99.90
40153;DHT22;26371;56.992;23.912;2022-11-15T06:46:58;4.10;99.90
40153;DHT22;26371;56.992;23.912;2022-11-15T06:49:45;4.10;99.90
40153;DHT22;26371;56.992;23.912;2022-11-15T06:52:33;4.10;99.90
40153;DHT22;26371;56.992;23.912;2022-11-15T06:55:20;4.10;99.90
40153;DHT22;26371;56.992;23.912;2022-11-15T06:58:07;4.20;99.90
40153;DHT22;26371;56.992;23.912;2022-11-15T07:00:59;4.20;99.90
40153;DHT22;26371;56.992;23.912;2022-11-15T07:03:47;4.20;99.90
40153;DHT22;26371;56.992;23.912;2022-11-15T07:06:34;4.20;99.90
40153;DHT22;26371;56.992;23.912;2022-11-15T07:09:21;4.20;99.90
40153;DHT22;26371;56.992;23.912;2022-11-15T07:12:09;4.30;99.90
40153;DHT22;26371;56.992;23.912;2022-11-15T07:14:56;4.30;99.90
40153;DHT22;26371;56.992;23.912;2022-11-15T07:17:45;4.30;99.90
40153;DHT22;26371;56.992;23.912;2022-11-15T07:20:32;4.30;99.90
40153;DHT22;26371;56.992;23.912;2022-11-15T07:23:19;4.30;99.90
40153;DHT22;26371;56.992;23.912;2022-11-15T07:26:07;4.40;99.90
40153;DHT22;26371;56.992;23.912;2022-11-15T07:28:54;4.40;99.90
40153;DHT22;26371;56.992;23.912;2022-11-15T07:31:42;4.40;99.90
40153;DHT22;26371;56.992;23.912;2022-11-15T07:34:30;4.50;99.90
40153;DHT22;26371;56.992;23.912;2022-11-15T07:37:18;4.50;99.90
40153;DHT22;26371;56.992;23.912;2022-11-15T07:40:06;4.50;99.90
40153;DHT22;26371;56.992;23.912;2022-11-15T07:42:59;4.50;99.90
40153;DHT22;26371;56.992;23.912;2022-11-15T07:45:47;4.60;99.90
40153;DHT22;26371;56.992;23.912;2022-11-15T07:48:39;4.60;99.90
40153;DHT22;26371;56.992;23.912;2022-11-15T07:51:31;4.60;99.90
40153;DHT22;26371;56.992;23.912;2022-11-15T07:54:18;4.60;99.90
40153;DHT22;26371;56.992;23.912;2022-11-15T07:57:06;4.60;99.90
40153;DHT22;26371;56.992;23.912;2022-11-15T07:59:54;4.70;99.90
40153;DHT22;26371;56.992;23.912;2022-11-15T08:02:42;4.70;99.90
40153;DHT22;26371;56.992;23.912;2022-11-15T08:05:29;4.80;99.90
40153;DHT22;26371;56.992;23.912;2022-11-15T08:08:18;4.80;99.90
40153;DHT22;26371;56.992;23.912;2022-11-15T08:11:06;4.80;99.90
40153;DHT22;26371;56.992;23.912;2022-11-15T08:13:53;4.90;99.90
40153;DHT22;26371;56.992;23.912;2022-11-15T08:16:40;4.90;99.90
40153;DHT22;26371;56.992;23.912;2022-11-15T08:19:27;4.90;99.90
40153;DHT22;26371;56.992;23.912;2022-11-15T08:22:15;5.00;99.90
40153;DHT22;26371;56.992;23.912;2022-11-15T08:25:04;5.00;99.90
40153;DHT22;26371;56.992;23.912;2022-11-15T08:27:52;5.00;99.90
40153;DHT22;26371;56.992;23.912;2022-11-15T08:30:41;5.10;99.90
40153;DHT22;26371;56.992;23.912;2022-11-15T08:33:31;5.10;99.90
40153;DHT22;26371;56.992;23.912;2022-11-15T08:36:19;5.20;99.90
40153;DHT22;26371;56.992;23.912;2022-11-15T08:39:08;5.30;99.90
40153;DHT22;26371;56.992;23.912;2022-11-15T08:41:57;5.40;99.90
40153;DHT22;26371;56.992;23.912;2022-11-15T08:44:45;5.40;99.90
40153;DHT22;26371;56.992;23.912;2022-11-15T08:47:32;5.50;99.90
40153;DHT22;26371;56.992;23.912;2022-11-15T08:50:20;5.50;99.90
40153;DHT22;26371;56.992;23.912;2022-11-15T08:53:07;5.60;99.90
40153;DHT22;26371;56.992;23.912;2022-11-15T08:55:55;5.70;99.90
40153;DHT22;26371;56.992;23.912;2022-11-15T08:58:43;5.80;99.90
40153;DHT22;26371;56.992;23.912;2022-11-15T09:01:32;5.80;99.90
40153;DHT22;26371;56.992;23.912;2022-11-15T09:04:20;5.90;99.90
40153;DHT22;26371;56.992;23.912;2022-11-15T09:07:07;6.00;99.90
40153;DHT22;26371;56.992;23.912;2022-11-15T09:09:54;6.10;99.90
40153;DHT22;26371;56.992;23.912;2022-11-15T09:12:42;6.20;99.90
40153;DHT22;26371;56.992;23.912;2022-11-15T09:15:30;6.30;99.90
40153;DHT22;26371;56.992;23.912;2022-11-15T09:18:18;6.50;99.90
40153;DHT22;26371;56.992;23.912;2022-11-15T09:21:07;6.50;99.90
40153;DHT22;26371;56.992;23.912;2022-11-15T09:23:55;6.50;99.90
40153;DHT22;26371;56.992;23.912;2022-11-15T09:26:42;6.60;99.90
40153;DHT22;26371;56.992;23.912;2022-11-15T09:29:29;6.60;99.90
40153;DHT22;26371;56.992;23.912;2022-11-15T09:32:18;6.60;99.90
40153;DHT22;26371;56.992;23.912;2022-11-15T09:35:06;6.60;99.90
40153;DHT22;26371;56.992;23.912;2022-11-15T09:37:53;6.70;99.90
40153;DHT22;26371;56.992;23.912;2022-11-15T09:40:41;6.70;99.90
40153;DHT22;26371;56.992;23.912;2022-11-15T09:43:34;6.70;99.90
40153;DHT22;26371;56.992;23.912;2022-11-15T09:46:35;6.80;99.90
40153;DHT22;26371;56.992;23.912;2022-11-15T09:49:13;6.80;99.90
40153;DHT22;26371;56.992;23.912;2022-11-15T09:52:14;6.80;99.90
40153;DHT22;26371;56.992;23.912;2022-11-15T09:54:47;6.90;99.90
40153;DHT22;26371;56.992;23.912;2022-11-15T09:57:24;6.90;99.90
40153;DHT22;26371;56.992;23.912;2022-11-15T10:00:10;6.90;99.90
40153;DHT22;26371;56.992;23.912;2022-11-15T10:03:09;6.90;99.90
40153;DHT22;26371;56.992;23.912;2022-11-15T10:05:43;6.90;99.90
40153;DHT22;26371;56.992;23.912;2022-11-15T10:08:30;7.00;99.90
40153;DHT22;26371;56.992;23.912;2022-11-15T10:11:02;7.10;99.90
40153;DHT22;26371;56.992;23.912;2022-11-15T10:13:54;7.10;99.90
40153;DHT22;26371;56.992;23.912;2022-11-15T10:16:46;7.20;99.90
40153;DHT22;26371;56.992;23.912;2022-11-15T10:19:26;7.20;99.90
40153;DHT22;26371;56.992;23.912;2022-11-15T10:22:11;7.20;99.90
40153;DHT22;26371;56.992;23.912;2022-11-15T10:24:45;7.20;99.90
40153;DHT22;26371;56.992;23.912;2022-11-15T10:27:16;7.20;99.90
40153;DHT22;26371;56.992;23.912;2022-11-15T10:29:46;7.30;99.90
40153;DHT22;26371;56.992;23.912;2022-11-15T10:32:19;7.30;99.90
40153;DHT22;26371;56.992;23.912;2022-11-15T10:34:49;7.30;99.90
40153;DHT22;26371;56.992;23.912;2022-11-15T10:37:29;7.30;99.90
40153;DHT22;26371;56.992;23.912;2022-11-15T10:40:06;7.40;99.90
40153;DHT22;26371;56.992;23.912;2022-11-15T10:42:35;7.40;99.90
40153;DHT22;26371;56.992;23.912;2022-11-15T10:45:24;7.40;99.90
40153;DHT22;26371;56.992;23.912;2022-11-15T10:47:52;7.40;99.90
40153;DHT22;26371;56.992;23.912;2022-11-15T10:50:29;7.50;99.90
40153;DHT22;26371;56.992;23.912;2022-11-15T10:53:01;7.50;99.90
40153;DHT22;26371;56.992;23.912;2022-11-15T10:55:31;7.50;99.90
40153;DHT22;26371;56.992;23.912;2022-11-15T10:58:05;7.50;99.90
40153;DHT22;26371;56.992;23.912;2022-11-15T11:00:36;7.60;99.90
40153;DHT22;26371;56.992;23.912;2022-11-15T11:03:26;7.60;99.90
40153;DHT22;26371;56.992;23.912;2022-11-15T11:06:07;7.60;99.90
40153;DHT22;26371;56.992;23.912;2022-11-15T11:08:37;7.70;99.90
40153;DHT22;26371;56.992;23.912;2022-11-15T11:11:07;7.70;99.90
40153;DHT22;26371;56.992;23.912;2022-11-15T11:13:37;7.80;99.90
40153;DHT22;26371;56.992;23.912;2022-11-15T11:16:34;7.80;99.90
40153;DHT22;26371;56.992;23.912;2022-11-15T11:19:18;7.80;99.90
40153;DHT22;26371;56.992;23.912;2022-11-15T11:21:54;7.70;99.90
40153;DHT22;26371;56.992;23.912;2022-11-15T11:24:34;7.60;99.90
40153;DHT22;26371;56.992;23.912;2022-11-15T11:27:20;7.60;99.90
40153;DHT22;26371;56.992;23.912;2022-11-15T11:30:02;7.60;99.90
40153;DHT22;26371;56.992;23.912;2022-11-15T11:32:47;7.50;99.90
40153;DHT22;26371;56.992;23.912;2022-11-15T11:35:26;7.50;99.90
40153;DHT22;26371;56.992;23.912;2022-11-15T11:38:05;7.40;99.90
40153;DHT22;26371;56.992;23.912;2022-11-15T11:40:40;7.40;99.90
40153;DHT22;26371;56.992;23.912;2022-11-15T11:43:20;7.40;99.90
40153;DHT22;26371;56.992;23.912;2022-11-15T11:46:16;7.30;99.90
40153;DHT22;26371;56.992;23.912;2022-11-15T11:48:48;7.40;99.90
40153;DHT22;26371;56.992;23.912;2022-11-15T11:51:24;7.40;99.90
40153;DHT22;26371;56.992;23.912;2022-11-15T11:53:58;7.40;99.90
40153;DHT22;26371;56.992;23.912;2022-11-15T11:56:31;7.40;99.90
40153;DHT22;26371;56.992;23.912;2022-11-15T11:59:05;7.40;99.90
40153;DHT22;26371;56.992;23.912;2022-11-15T12:01:42;7.40;99.90
40153;DHT22;26371;56.992;23.912;2022-11-15T12:04:14;7.40;99.90
40153;DHT22;26371;56.992;23.912;2022-11-15T12:06:49;7.40;99.90
40153;DHT22;26371;56.992;23.912;2022-11-15T12:09:23;7.40;99.90
40153;DHT22;26371;56.992;23.912;2022-11-15T12:12:04;7.40;99.90
40153;DHT22;26371;56.992;23.912;2022-11-15T12:14:40;7.40;99.90
40153;DHT22;26371;56.992;23.912;2022-11-15T12:17:11;7.50;99.90
40153;DHT22;26371;56.992;23.912;2022-11-15T12:19:40;7.40;99.90
40153;DHT22;26371;56.992;23.912;2022-11-15T12:22:13;7.40;99.90
40153;DHT22;26371;56.992;23.912;2022-11-15T12:24:47;7.30;99.90
40153;DHT22;26371;56.992;23.912;2022-11-15T12:27:22;7.30;99.90
40153;DHT22;26371;56.992;23.912;2022-11-15T12:29:56;7.20;99.90
40153;DHT22;26371;56.992;23.912;2022-11-15T12:32:29;7.20;99.90
40153;DHT22;26371;56.992;23.912;2022-11-15T12:35:01;7.10;99.90
40153;DHT22;26371;56.992;23.912;2022-11-15T12:40:34;6.90;99.90
40153;DHT22;26371;56.992;23.912;2022-11-15T12:46:20;6.70;99.90
40153;DHT22;26371;56.992;23.912;2022-11-15T12:48:54;6.70;99.90
40153;DHT22;26371;56.992;23.912;2022-11-15T12:55:01;6.60;99.90
40153;DHT22;26371;56.992;23.912;2022-11-15T12:57:38;6.60;99.90
40153;DHT22;26371;56.992;23.912;2022-11-15T13:03:27;6.80;99.90
40153;DHT22;26371;56.992;23.912;2022-11-15T13:06:08;6.90;99.90
40153;DHT22;26371;56.992;23.912;2022-11-15T13:11:53;6.90;99.90
40153;DHT22;26371;56.992;23.912;2022-11-15T13:14:47;7.00;99.90
40153;DHT22;26371;56.992;23.912;2022-11-15T13:20:24;6.90;99.90
40153;DHT22;26371;56.992;23.912;2022-11-15T13:23:08;6.90;99.90
40153;DHT22;26371;56.992;23.912;2022-11-15T13:26:08;6.90;99.90
40153;DHT22;26371;56.992;23.912;2022-11-15T13:28:42;6.90;99.90
40153;DHT22;26371;56.992;23.912;2022-11-15T13:31:35;6.90;99.90
40153;DHT22;26371;56.992;23.912;2022-11-15T13:34:26;6.90;99.90
40153;DHT22;26371;56.992;23.912;2022-11-15T13:37:29;6.90;99.90
40153;DHT22;26371;56.992;23.912;2022-11-15T13:40:20;6.90;99.90
40153;DHT22;26371;56.992;23.912;2022-11-15T13:42:49;6.70;99.90
40153;DHT22;26371;56.992;23.912;2022-11-15T13:45:18;6.70;99.90
40153;DHT22;26371;56.992;23.912;2022-11-15T13:47:57;6.60;99.90
40153;DHT22;26371;56.992;23.912;2022-11-15T13:50:30;6.60;99.90
40153;DHT22;26371;56.992;23.912;2022-11-15T13:53:03;6.60;99.90
40153;DHT22;26371;56.992;23.912;2022-11-15T13:55:33;6.60;99.90
40153;DHT22;26371;56.992;23.912;2022-11-15T13:58:03;6.70;99.90
40153;DHT22;26371;56.992;23.912;2022-11-15T14:00:37;6.80;99.90
40153;DHT22;26371;56.992;23.912;2022-11-15T14:03:14;6.80;99.90
40153;DHT22;26371;56.992;23.912;2022-11-15T14:05:45;6.80;99.90
40153;DHT22;26371;56.992;23.912;2022-11-15T14:08:23;6.80;99.90
40153;DHT22;26371;56.992;23.912;2022-11-15T14:11:12;6.90;99.90
40153;DHT22;26371;56.992;23.912;2022-11-15T14:13:41;6.90;99.90
40153;DHT22;26371;56.992;23.912;2022-11-15T14:16:16;6.90;99.90
40153;DHT22;26371;56.992;23.912;2022-11-15T14:18:47;6.90;99.90
40153;DHT22;26371;56.992;23.912;2022-11-15T14:21:16;6.80;99.90
40153;DHT22;26371;56.992;23.912;2022-11-15T14:23:46;6.80;99.90
40153;DHT22;26371;56.992;23.912;2022-11-15T14:26:29;6.80;99.90
40153;DHT22;26371;56.992;23.912;2022-11-15T14:29:21;6.70;99.90
40153;DHT22;26371;56.992;23.912;2022-11-15T14:31:50;6.70;99.90
40153;DHT22;26371;56.992;23.912;2022-11-15T14:34:19;6.60;99.90
40153;DHT22;26371;56.992;23.912;2022-11-15T14:36:49;6.70;99.90
40153;DHT22;26371;56.992;23.912;2022-11-15T14:39:19;6.80;99.90
40153;DHT22;26371;56.992;23.912;2022-11-15T14:41:48;6.90;99.90
40153;DHT22;26371;56.992;23.912;2022-11-15T14:44:17;6.90;99.90
40153;DHT22;26371;56.992;23.912;2022-11-15T14:46:47;6.90;99.90
40153;DHT22;26371;56.992;23.912;2022-11-15T14:49:16;6.90;99.90
40153;DHT22;26371;56.992;23.912;2022-11-15T14:51:44;6.90;99.90
40153;DHT22;26371;56.992;23.912;2022-11-15T14:54:13;6.90;99.90
40153;DHT22;26371;56.992;23.912;2022-11-15T14:56:43;6.80;99.90
40153;DHT22;26371;56.992;23.912;2022-11-15T14:59:12;6.80;99.90
40153;DHT22;26371;56.992;23.912;2022-11-15T15:01:40;6.70;99.90
40153;DHT22;26371;56.992;23.912;2022-11-15T15:04:11;6.70;99.90
40153;DHT22;26371;56.992;23.912;2022-11-15T15:06:40;6.70;99.90
40153;DHT22;26371;56.992;23.912;2022-11-15T15:09:09;6.70;99.90
40153;DHT22;26371;56.992;23.912;2022-11-15T15:11:37;6.70;99.90
40153;DHT22;26371;56.992;23.912;2022-11-15T15:14:08;6.70;99.90
40153;DHT22;26371;56.992;23.912;2022-11-15T15:16:36;6.70;99.90
40153;DHT22;26371;56.992;23.912;2022-11-15T15:19:05;6.70;99.90
40153;DHT22;26371;56.992;23.912;2022-11-15T15:21:34;6.70;99.90
40153;DHT22;26371;56.992;23.912;2022-11-15T15:24:04;6.70;99.90
40153;DHT22;26371;56.992;23.912;2022-11-15T15:26:33;6.70;99.90
40153;DHT22;26371;56.992;23.912;2022-11-15T15:29:03;6.80;99.90
40153;DHT22;26371;56.992;23.912;2022-11-15T15:31:33;6.70;99.90
40153;DHT22;26371;56.992;23.912;2022-11-15T15:34:03;6.70;99.90
40153;DHT22;26371;56.992;23.912;2022-11-15T15:36:35;6.70;99.90
40153;DHT22;26371;56.992;23.912;2022-11-15T15:39:04;6.70;99.90
40153;DHT22;26371;56.992;23.912;2022-11-15T15:41:33;6.70;99.90
40153;DHT22;26371;56.992;23.912;2022-11-15T15:44:01;6.70;99.90
40153;DHT22;26371;56.992;23.912;2022-11-15T15:46:30;6.70;99.90
40153;DHT22;26371;56.992;23.912;2022-11-15T15:49:00;6.70;99.90
40153;DHT22;26371;56.992;23.912;2022-11-15T15:51:29;6.60;99.90
40153;DHT22;26371;56.992;23.912;2022-11-15T15:53:57;6.70;99.90
40153;DHT22;26371;56.992;23.912;2022-11-15T15:56:26;6.60;99.90
40153;DHT22;26371;56.992;23.912;2022-11-15T15:58:55;6.60;99.90
40153;DHT22;26371;56.992;23.912;2022-11-15T16:01:23;6.60;99.90
40153;DHT22;26371;56.992;23.912;2022-11-15T16:03:52;6.60;99.90
40153;DHT22;26371;56.992;23.912;2022-11-15T16:06:37;6.50;99.90
40153;DHT22;26371;56.992;23.912;2022-11-15T16:09:06;6.50;99.90
40153;DHT22;26371;56.992;23.912;2022-11-15T16:11:42;6.40;99.90
40153;DHT22;26371;56.992;23.912;2022-11-15T16:14:11;6.30;99.90
40153;DHT22;26371;56.992;23.912;2022-11-15T16:16:41;6.20;99.90
40153;DHT22;26371;56.992;23.912;2022-11-15T16:19:12;6.20;99.90
40153;DHT22;26371;56.992;23.912;2022-11-15T16:21:44;6.10;99.90
40153;DHT22;26371;56.992;23.912;2022-11-15T16:24:15;6.00;99.90
40153;DHT22;26371;56.992;23.912;2022-11-15T16:26:48;5.90;99.90
40153;DHT22;26371;56.992;23.912;2022-11-15T16:29:18;5.80;99.90
40153;DHT22;26371;56.992;23.912;2022-11-15T16:31:47;5.80;99.90
40153;DHT22;26371;56.992;23.912;2022-11-15T16:34:15;5.70;99.90
40153;DHT22;26371;56.992;23.912;2022-11-15T16:36:46;5.60;99.90
40153;DHT22;26371;56.992;23.912;2022-11-15T16:39:14;5.50;99.90
40153;DHT22;26371;56.992;23.912;2022-11-15T16:41:45;5.50;99.90
40153;DHT22;26371;56.992;23.912;2022-11-15T16:44:14;5.50;99.90
40153;DHT22;26371;56.992;23.912;2022-11-15T16:46:43;5.40;99.90
40153;DHT22;26371;56.992;23.912;2022-11-15T16:49:19;5.40;99.90
40153;DHT22;26371;56.992;23.912;2022-11-15T16:51:49;5.40;99.90
40153;DHT22;26371;56.992;23.912;2022-11-15T16:54:19;5.40;99.90
40153;DHT22;26371;56.992;23.912;2022-11-15T16:56:48;5.30;99.90
40153;DHT22;26371;56.992;23.912;2022-11-15T16:59:17;5.30;99.90
40153;DHT22;26371;56.992;23.912;2022-11-15T17:01:47;5.30;99.90
40153;DHT22;26371;56.992;23.912;2022-11-15T17:04:19;5.30;99.90
40153;DHT22;26371;56.992;23.912;2022-11-15T17:06:50;5.30;99.90
40153;DHT22;26371;56.992;23.912;2022-11-15T17:09:21;5.30;99.90
40153;DHT22;26371;56.992;23.912;2022-11-15T17:11:51;5.30;99.90
40153;DHT22;26371;56.992;23.912;2022-11-15T17:14:20;5.30;99.90
40153;DHT22;26371;56.992;23.912;2022-11-15T17:16:48;5.30;99.90
40153;DHT22;26371;56.992;23.912;2022-11-15T17:19:18;5.30;99.90
40153;DHT22;26371;56.992;23.912;2022-11-15T17:21:48;5.30;99.90
40153;DHT22;26371;56.992;23.912;2022-11-15T17:24:18;5.20;99.90
40153;DHT22;26371;56.992;23.912;2022-11-15T17:26:47;5.20;99.90
40153;DHT22;26371;56.992;23.912;2022-11-15T17:29:16;5.20;99.90
40153;DHT22;26371;56.992;23.912;2022-11-15T17:31:45;5.20;99.90